»·PEaware :: WAT202 KLAS-KPHX

WAT202 :: KLAS-KPHX

FLIGHT INFORMATION

Flight Status: Arrived
Operator: Unknown
More flights by this operator :: More flights under this callsign
Pilot: Nick L. (7253)
Aircraft: AIRBUS A319
(A319)
More flights by this aircraft type
Origin: KLAS McCarran Intl
United States
Destination: KPHX Phoenix Sky Harbor Intl
United States
More flights between these airports :: More routes between these airports
Route: PRFUM4 PRFUM WOTRO BRUSR1
File this flight plan on PilotEdge
Remarks:
Altitude:
(Current/Filed)
29,000ft
Speed:
(Current/Filed)
456kts
Departed: 18-May-20 05:49 PM
Arrived: 18-May-20 06:44 PM
Distance/Time
Traveled:
222nm/0:55
Distance/Time
To Go:
Arrived

Flight Plot

Page will automatically refresh every two minutes.


Map Options




Map Legend


Flown Route
Filed Route
Departure Airport
Arrival Airport
Navaid (VOR, NDB)
Fix

Horizontal Profiles

Position Reports

Time Latitude Longitude Heading Altitude Ground
Speed
18-May-20 16:46 36.079943 -115.147087 57 2103ft 0kts
18-May-20 16:47 36.079943 -115.147087 57 2103ft 0kts
18-May-20 16:48 36.079943 -115.147087 57 2103ft 0kts
18-May-20 16:49 36.079943 -115.147087 57 2103ft 0kts
18-May-20 16:50 36.079943 -115.147087 57 2103ft 0kts
18-May-20 16:51 36.079943 -115.147087 57 2103ft 0kts
18-May-20 16:52 36.079943 -115.147087 57 2103ft 0kts
18-May-20 16:53 36.079943 -115.147087 57 2103ft 0kts
18-May-20 16:54 36.079943 -115.147087 57 2103ft 0kts
18-May-20 16:55 36.079943 -115.147087 57 2103ft 0kts
18-May-20 16:56 36.079943 -115.147087 57 2103ft 0kts
18-May-20 16:57 36.079943 -115.147087 57 2103ft 0kts
18-May-20 16:58 36.079943 -115.147087 57 2103ft 0kts
18-May-20 16:59 36.079943 -115.147087 57 2103ft 0kts
18-May-20 17:00 36.079943 -115.147087 57 2103ft 0kts
18-May-20 17:01 36.079943 -115.147087 57 2103ft 0kts
18-May-20 17:02 36.079943 -115.147087 57 2103ft 0kts
18-May-20 17:03 36.079943 -115.147087 57 2103ft 0kts
18-May-20 17:04 36.079943 -115.147087 57 2103ft 0kts
18-May-20 17:05 36.079943 -115.147087 57 2103ft 0kts
18-May-20 17:06 36.079943 -115.147087 57 2103ft 0kts
18-May-20 17:07 36.079943 -115.147087 57 2103ft 0kts
18-May-20 17:08 36.079943 -115.147087 57 2103ft 0kts
18-May-20 17:09 36.079943 -115.147087 57 2103ft 0kts
18-May-20 17:10 36.079943 -115.147087 57 2103ft 0kts
18-May-20 17:11 36.079943 -115.147087 57 2103ft 0kts
18-May-20 17:12 36.079943 -115.147087 57 2103ft 0kts
18-May-20 17:13 36.079943 -115.147087 57 2103ft 0kts
18-May-20 17:14 36.079943 -115.147087 57 2103ft 0kts
18-May-20 17:15 36.079943 -115.147087 57 2103ft 0kts
18-May-20 17:16 36.079943 -115.147087 57 2103ft 0kts
18-May-20 17:17 36.079943 -115.147087 57 2103ft 0kts
18-May-20 17:18 36.079943 -115.147087 57 2103ft 0kts
18-May-20 17:19 36.079943 -115.147087 57 2103ft 0kts
18-May-20 17:20 36.079943 -115.147087 57 2103ft 0kts
18-May-20 17:21 36.079943 -115.147087 57 2103ft 0kts
18-May-20 17:22 36.079943 -115.147087 57 2103ft 0kts
18-May-20 17:23 36.079943 -115.147087 57 2103ft 0kts
18-May-20 17:24 36.079943 -115.147087 57 2103ft 0kts
18-May-20 17:25 36.079943 -115.147087 57 2103ft 0kts
18-May-20 17:27 36.079943 -115.147087 57 2103ft 0kts
18-May-20 17:28 36.079943 -115.147087 57 2103ft 0kts
18-May-20 17:29 36.079943 -115.147087 57 2103ft 0kts
18-May-20 17:30 36.079943 -115.147087 57 2103ft 0kts
18-May-20 17:31 36.079943 -115.147087 57 2103ft 0kts
18-May-20 17:32 36.079943 -115.147087 57 2103ft 0kts
18-May-20 17:33 36.079723 -115.147527 82 2104ft 2kts
18-May-20 17:34 36.079914 -115.147894 155 2105ft 0kts
18-May-20 17:35 36.079914 -115.147894 155 2105ft 0kts
18-May-20 17:36 36.079914 -115.147894 155 2105ft 0kts
18-May-20 17:37 36.079914 -115.147894 155 2105ft 0kts
18-May-20 17:38 36.079910 -115.147892 155 2105ft 0kts
18-May-20 17:39 36.078933 -115.147321 153 2105ft 11kts
18-May-20 17:40 36.078234 -115.142655 89 2089ft 14kts
18-May-20 17:41 36.078230 -115.136929 88 2073ft 18kts
18-May-20 17:42 36.078250 -115.129218 89 2052ft 19kts
18-May-20 17:42 36.078255 -115.124218 89 2043ft 16kts
18-May-20 17:44 36.077902 -115.122203 131 2040ft 0kts
18-May-20 17:45 36.077484 -115.121586 133 2039ft 0kts
18-May-20 17:45 36.077460 -115.121556 133 2039ft 1kts
18-May-20 17:46 36.077318 -115.121398 149 2039ft 0kts
18-May-20 17:47 36.077303 -115.121388 152 2039ft 1kts
18-May-20 17:48 36.076400 -115.135474 269 2072ft 140kts
18-May-20 17:49 36.078361 -115.191169 261 4242ft 174kts
18-May-20 17:50 36.065046 -115.256389 215 6203ft 231kts
18-May-20 17:51 35.998940 -115.289063 200 8882ft 273kts
18-May-20 17:52 35.921779 -115.283473 164 11297ft 316kts
18-May-20 17:53 35.852569 -115.206850 110 12768ft 396kts
18-May-20 17:54 35.825150 -115.074518 101 16086ft 404kts
18-May-20 17:55 35.831832 -114.929603 90 17926ft 446kts
18-May-20 17:56 35.844015 -114.770026 90 19526ft 477kts
18-May-20 17:57 35.848897 -114.605660 108 21481ft 476kts
18-May-20 17:58 35.787795 -114.468795 129 23620ft 463kts
18-May-20 17:59 35.715166 -114.332852 129 24850ft 480kts
18-May-20 18:00 35.641561 -114.194373 130 26704ft 475kts
18-May-20 18:01 35.568890 -114.058631 130 28384ft 471kts
18-May-20 18:02 35.496666 -113.924334 130 28972ft 470kts
18-May-20 18:03 35.424386 -113.790506 130 28974ft 470kts
18-May-20 18:04 35.351872 -113.656708 130 28975ft 470kts
18-May-20 18:05 35.279627 -113.523893 130 28975ft 470kts
18-May-20 18:06 35.206980 -113.390817 130 28975ft 470kts
18-May-20 18:07 35.134000 -113.256977 131 28975ft 469kts
18-May-20 18:08 35.061453 -113.124295 131 29014ft 469kts
18-May-20 18:09 34.987933 -112.991467 130 29081ft 471kts
18-May-20 18:10 34.914067 -112.858567 128 29109ft 476kts
18-May-20 18:11 34.838641 -112.723724 128 29106ft 477kts
18-May-20 18:12 34.763694 -112.589660 128 27655ft 470kts
18-May-20 18:13 34.686021 -112.466963 139 25048ft 441kts
18-May-20 18:14 34.593353 -112.373884 144 22742ft 434kts
18-May-20 18:15 34.499376 -112.281919 144 21448ft 428kts
18-May-20 18:16 34.400712 -112.218014 170 20196ft 381kts
18-May-20 18:17 34.301670 -112.192747 170 18475ft 345kts
18-May-20 18:18 34.210574 -112.169324 170 16861ft 326kts
18-May-20 18:19 34.123888 -112.146983 170 15400ft 307kts
18-May-20 18:20 34.046376 -112.121007 164 14423ft 285kts
18-May-20 18:21 33.971893 -112.090706 164 13072ft 276kts
18-May-20 18:22 33.899964 -112.061499 164 11766ft 269kts
18-May-20 18:23 33.828552 -112.032577 165 10446ft 267kts
18-May-20 18:24 33.758039 -112.004043 165 9171ft 267kts
18-May-20 18:25 33.683528 -111.973958 164 8881ft 280kts
18-May-20 18:26 33.614509 -111.946049 164 8057ft 255kts
18-May-20 18:27 33.548381 -111.919316 163 7132ft 237kts
18-May-20 18:28 33.527060 -111.848404 93 7061ft 252kts
18-May-20 18:29 33.489301 -111.799427 179 5898ft 221kts
18-May-20 18:30 33.435684 -111.813043 243 4771ft 200kts
18-May-20 18:31 33.440617 -111.879061 264 3462ft 199kts
18-May-20 18:32 33.456947 -111.943318 329 4356ft 248kts
18-May-20 18:33 33.523883 -111.967678 340 6037ft 249kts
18-May-20 18:34 33.571220 -111.924015 89 6061ft 253kts
18-May-20 18:35 33.573868 -111.840871 90 5286ft 247kts
18-May-20 18:36 33.561758 -111.766567 125 5055ft 214kts
18-May-20 18:37 33.510158 -111.751526 180 4990ft 191kts
18-May-20 18:38 33.458939 -111.759915 211 4065ft 189kts
18-May-20 18:39 33.441191 -111.816353 263 4000ft 190kts
18-May-20 18:40 33.440844 -111.879106 263 3025ft 182kts
18-May-20 18:41 33.440810 -111.932253 263 2165ft 150kts
18-May-20 18:42 33.440882 -111.981859 262 1361ft 146kts
18-May-20 18:43 33.440346 -112.013549 199 1130ft 18kts
18-May-20 18:44 33.439751 -112.011677 87 1131ft 31kts
18-May-20 18:45 33.437809 -112.002997 153 1134ft 12kts
18-May-20 18:46 33.437660 -112.002382 89 1136ft 0kts

Navigation Log

Ident Type
Flight plan parsing failed, navigation log unavailable